sensor_id;sensor_type;location;lat;lon;timestamp;pressure;altitude;pressure_sealevel;temperature;humidity
66547;BME280;53400;50.364;14.874;2023-06-26T00:00:23;98762.34;;;19.45;75.46
66547;BME280;53400;50.364;14.874;2023-06-26T00:03:09;98754.41;;;19.02;75.30
66547;BME280;53400;50.364;14.874;2023-06-26T00:05:40;98750.03;;;18.88;79.30
66547;BME280;53400;50.364;14.874;2023-06-26T00:08:07;98754.75;;;18.82;74.60
66547;BME280;53400;50.364;14.874;2023-06-26T00:10:35;98747.00;;;18.89;74.84
66547;BME280;53400;50.364;14.874;2023-06-26T00:13:01;98749.34;;;18.96;74.84
66547;BME280;53400;50.364;14.874;2023-06-26T00:15:29;98749.66;;;18.94;76.88
66547;BME280;53400;50.364;14.874;2023-06-26T00:17:57;98750.66;;;19.31;77.19
66547;BME280;53400;50.364;14.874;2023-06-26T00:20:23;98754.03;;;19.23;76.09
66547;BME280;53400;50.364;14.874;2023-06-26T00:22:51;98750.19;;;19.10;78.06
66547;BME280;53400;50.364;14.874;2023-06-26T00:25:17;98753.03;;;18.67;78.66
66547;BME280;53400;50.364;14.874;2023-06-26T00:27:44;98749.22;;;18.68;77.95
66547;BME280;53400;50.364;14.874;2023-06-26T00:30:11;98746.75;;;18.72;79.59
66547;BME280;53400;50.364;14.874;2023-06-26T00:32:39;98756.66;;;18.82;80.64
66547;BME280;53400;50.364;14.874;2023-06-26T00:35:05;98741.09;;;18.30;83.17
66547;BME280;53400;50.364;14.874;2023-06-26T00:37:31;98752.16;;;18.53;79.53
66547;BME280;53400;50.364;14.874;2023-06-26T00:39:58;98755.31;;;18.60;80.07
66547;BME280;53400;50.364;14.874;2023-06-26T00:42:24;98749.66;;;18.38;81.34
66547;BME280;53400;50.364;14.874;2023-06-26T00:44:51;98748.97;;;18.32;80.67
66547;BME280;53400;50.364;14.874;2023-06-26T00:47:17;98750.13;;;18.45;81.53
66547;BME280;53400;50.364;14.874;2023-06-26T00:49:43;98750.56;;;18.52;81.53
66547;BME280;53400;50.364;14.874;2023-06-26T00:52:10;98752.63;;;18.41;79.72
66547;BME280;53400;50.364;14.874;2023-06-26T00:54:36;98748.50;;;18.25;81.88
66547;BME280;53400;50.364;14.874;2023-06-26T00:57:02;98750.84;;;18.31;82.34
66547;BME280;53400;50.364;14.874;2023-06-26T00:59:29;98750.19;;;18.21;84.58
66547;BME280;53400;50.364;14.874;2023-06-26T01:01:56;98744.81;;;17.97;85.33
66547;BME280;53400;50.364;14.874;2023-06-26T01:04:22;98748.16;;;17.88;85.82
66547;BME280;53400;50.364;14.874;2023-06-26T01:06:54;98744.56;;;17.69;86.43
66547;BME280;53400;50.364;14.874;2023-06-26T01:09:22;98747.31;;;17.64;87.20
66547;BME280;53400;50.364;14.874;2023-06-26T01:11:48;98745.34;;;17.46;87.80
66547;BME280;53400;50.364;14.874;2023-06-26T01:14:15;98741.97;;;17.35;88.42
66547;BME280;53400;50.364;14.874;2023-06-26T01:16:41;98742.75;;;17.35;88.49
66547;BME280;53400;50.364;14.874;2023-06-26T01:19:19;98735.28;;;17.22;89.36
66547;BME280;53400;50.364;14.874;2023-06-26T01:21:52;98742.28;;;17.28;88.71
66547;BME280;53400;50.364;14.874;2023-06-26T01:24:24;98729.06;;;17.22;89.19
66547;BME280;53400;50.364;14.874;2023-06-26T01:26:54;98728.06;;;17.41;86.82
66547;BME280;53400;50.364;14.874;2023-06-26T01:29:22;98728.88;;;17.42;86.09
66547;BME280;53400;50.364;14.874;2023-06-26T01:31:49;98731.28;;;17.43;86.18
66547;BME280;53400;50.364;14.874;2023-06-26T01:34:17;98731.25;;;17.49;86.27
66547;BME280;53400;50.364;14.874;2023-06-26T01:36:44;98725.28;;;17.47;85.52
66547;BME280;53400;50.364;14.874;2023-06-26T01:39:10;98725.56;;;17.50;84.89
66547;BME280;53400;50.364;14.874;2023-06-26T01:41:37;98726.84;;;17.53;87.13
66547;BME280;53400;50.364;14.874;2023-06-26T01:44:17;98725.38;;;17.41;85.68
66547;BME280;53400;50.364;14.874;2023-06-26T01:46:56;98723.31;;;17.28;85.75
66547;BME280;53400;50.364;14.874;2023-06-26T01:49:31;98716.31;;;17.27;88.12
66547;BME280;53400;50.364;14.874;2023-06-26T01:52:05;98712.91;;;16.87;90.82
66547;BME280;53400;50.364;14.874;2023-06-26T01:54:37;98713.53;;;16.74;90.90
66547;BME280;53400;50.364;14.874;2023-06-26T01:57:05;98720.31;;;16.66;90.52
66547;BME280;53400;50.364;14.874;2023-06-26T01:59:34;98711.75;;;16.59;91.57
66547;BME280;53400;50.364;14.874;2023-06-26T02:02:00;98713.09;;;16.62;87.98
66547;BME280;53400;50.364;14.874;2023-06-26T02:04:27;98712.47;;;16.70;88.14
66547;BME280;53400;50.364;14.874;2023-06-26T02:06:54;98707.59;;;16.77;85.83
66547;BME280;53400;50.364;14.874;2023-06-26T02:09:20;98704.38;;;17.04;87.23
66547;BME280;53400;50.364;14.874;2023-06-26T02:11:46;98708.56;;;17.45;85.32
66547;BME280;53400;50.364;14.874;2023-06-26T02:14:13;98708.63;;;17.34;87.65
66547;BME280;53400;50.364;14.874;2023-06-26T02:16:40;98709.16;;;17.36;88.02
66547;BME280;53400;50.364;14.874;2023-06-26T02:19:06;98712.44;;;17.33;86.52
66547;BME280;53400;50.364;14.874;2023-06-26T02:21:32;98705.25;;;17.24;88.36
66547;BME280;53400;50.364;14.874;2023-06-26T02:23:59;98707.88;;;17.05;88.35
66547;BME280;53400;50.364;14.874;2023-06-26T02:26:25;98712.00;;;16.97;88.42
66547;BME280;53400;50.364;14.874;2023-06-26T02:28:51;98707.38;;;16.97;89.53
66547;BME280;53400;50.364;14.874;2023-06-26T02:31:17;98707.50;;;16.82;88.94
66547;BME280;53400;50.364;14.874;2023-06-26T02:33:44;98710.72;;;16.89;89.99
66547;BME280;53400;50.364;14.874;2023-06-26T02:36:11;98714.13;;;16.66;91.03
66547;BME280;53400;50.364;14.874;2023-06-26T02:38:37;98712.31;;;16.56;92.06
66547;BME280;53400;50.364;14.874;2023-06-26T02:41:03;98708.28;;;16.48;92.29
66547;BME280;53400;50.364;14.874;2023-06-26T02:43:29;98709.50;;;16.27;93.46
66547;BME280;53400;50.364;14.874;2023-06-26T02:45:56;98716.63;;;16.13;94.34
66547;BME280;53400;50.364;14.874;2023-06-26T02:48:22;98709.63;;;16.06;94.87
66547;BME280;53400;50.364;14.874;2023-06-26T02:50:49;98707.56;;;15.88;96.70
66547;BME280;53400;50.364;14.874;2023-06-26T02:53:16;98710.47;;;16.07;95.59
66547;BME280;53400;50.364;14.874;2023-06-26T02:55:41;98709.91;;;16.05;96.02
66547;BME280;53400;50.364;14.874;2023-06-26T02:58:08;98716.50;;;15.89;97.83
66547;BME280;53400;50.364;14.874;2023-06-26T03:00:33;98710.84;;;15.80;100.00
66547;BME280;53400;50.364;14.874;2023-06-26T03:03:00;98700.84;;;15.80;100.00
66547;BME280;53400;50.364;14.874;2023-06-26T03:05:26;98705.81;;;15.53;100.00
66547;BME280;53400;50.364;14.874;2023-06-26T03:07:54;98700.31;;;15.83;100.00
66547;BME280;53400;50.364;14.874;2023-06-26T03:10:20;98711.03;;;16.04;99.86
66547;BME280;53400;50.364;14.874;2023-06-26T03:12:46;98707.53;;;15.98;97.75
66547;BME280;53400;50.364;14.874;2023-06-26T03:15:12;98714.53;;;16.04;96.42
66547;BME280;53400;50.364;14.874;2023-06-26T03:17:38;98708.47;;;16.23;94.93
66547;BME280;53400;50.364;14.874;2023-06-26T03:20:05;98715.25;;;16.15;93.98
66547;BME280;53400;50.364;14.874;2023-06-26T03:22:33;98711.03;;;16.04;95.73
66547;BME280;53400;50.364;14.874;2023-06-26T03:25:01;98703.78;;;15.89;96.64
66547;BME280;53400;50.364;14.874;2023-06-26T03:27:28;98708.47;;;15.68;98.15
66547;BME280;53400;50.364;14.874;2023-06-26T03:29:53;98713.63;;;15.49;100.00
66547;BME280;53400;50.364;14.874;2023-06-26T03:32:19;98714.78;;;15.18;100.00
66547;BME280;53400;50.364;14.874;2023-06-26T03:34:45;98708.84;;;15.26;100.00
66547;BME280;53400;50.364;14.874;2023-06-26T03:37:12;98710.94;;;15.39;100.00
66547;BME280;53400;50.364;14.874;2023-06-26T03:39:38;98707.19;;;15.40;100.00
66547;BME280;53400;50.364;14.874;2023-06-26T03:42:06;98716.84;;;15.56;100.00
66547;BME280;53400;50.364;14.874;2023-06-26T03:44:32;98715.09;;;15.91;100.00
66547;BME280;53400;50.364;14.874;2023-06-26T03:46:58;98711.66;;;16.30;98.35
66547;BME280;53400;50.364;14.874;2023-06-26T03:49:24;98708.19;;;16.64;99.24
66547;BME280;53400;50.364;14.874;2023-06-26T03:51:50;98701.81;;;17.13;95.70
66547;BME280;53400;50.364;14.874;2023-06-26T03:54:17;98703.63;;;17.47;94.37
66547;BME280;53400;50.364;14.874;2023-06-26T03:56:43;98707.47;;;18.13;89.60
66547;BME280;53400;50.364;14.874;2023-06-26T03:59:11;98706.78;;;18.58;86.64
66547;BME280;53400;50.364;14.874;2023-06-26T04:01:37;98707.03;;;18.95;84.05
66547;BME280;53400;50.364;14.874;2023-06-26T04:04:03;98708.59;;;19.15;82.61
66547;BME280;53400;50.364;14.874;2023-06-26T04:06:30;98714.47;;;19.49;81.12
66547;BME280;53400;50.364;14.874;2023-06-26T04:08:57;98721.13;;;19.71;79.15
66547;BME280;53400;50.364;14.874;2023-06-26T04:11:24;98719.06;;;19.21;81.38
66547;BME280;53400;50.364;14.874;2023-06-26T04:13:50;98715.06;;;19.46;79.76
66547;BME280;53400;50.364;14.874;2023-06-26T04:16:19;98711.78;;;19.77;80.24
66547;BME280;53400;50.364;14.874;2023-06-26T04:18:45;98717.06;;;20.10;78.54
66547;BME280;53400;50.364;14.874;2023-06-26T04:21:12;98720.38;;;20.57;78.21
66547;BME280;53400;50.364;14.874;2023-06-26T04:23:39;98713.84;;;21.34;73.50
66547;BME280;53400;50.364;14.874;2023-06-26T04:26:06;98709.56;;;21.99;71.36
66547;BME280;53400;50.364;14.874;2023-06-26T04:28:32;98714.09;;;22.04;71.51
66547;BME280;53400;50.364;14.874;2023-06-26T04:31:00;98718.78;;;22.73;68.78
66547;BME280;53400;50.364;14.874;2023-06-26T04:33:27;98721.66;;;22.85;69.23
66547;BME280;53400;50.364;14.874;2023-06-26T04:35:54;98721.31;;;23.12;68.46
66547;BME280;53400;50.364;14.874;2023-06-26T04:38:20;98718.00;;;23.45;68.97
66547;BME280;53400;50.364;14.874;2023-06-26T04:40:47;98712.63;;;23.57;69.01
66547;BME280;53400;50.364;14.874;2023-06-26T04:43:13;98718.81;;;23.84;68.31
66547;BME280;53400;50.364;14.874;2023-06-26T04:45:40;98718.47;;;24.15;66.60
66547;BME280;53400;50.364;14.874;2023-06-26T04:48:06;98711.13;;;24.28;64.95
66547;BME280;53400;50.364;14.874;2023-06-26T04:50:39;98710.16;;;24.54;63.46
66547;BME280;53400;50.364;14.874;2023-06-26T04:53:05;98721.53;;;24.77;62.55
66547;BME280;53400;50.364;14.874;2023-06-26T04:55:32;98722.28;;;24.98;63.84
66547;BME280;53400;50.364;14.874;2023-06-26T04:57:57;98715.03;;;25.02;62.30
66547;BME280;53400;50.364;14.874;2023-06-26T05:00:24;98724.34;;;25.22;61.77
66547;BME280;53400;50.364;14.874;2023-06-26T05:02:50;98719.56;;;25.56;61.14
66547;BME280;53400;50.364;14.874;2023-06-26T05:05:25;98724.28;;;25.68;62.00
66547;BME280;53400;50.364;14.874;2023-06-26T05:07:54;98727.72;;;26.01;60.88
66547;BME280;53400;50.364;14.874;2023-06-26T05:10:22;98723.84;;;26.02;59.28
66547;BME280;53400;50.364;14.874;2023-06-26T05:12:48;98726.56;;;26.15;58.63
66547;BME280;53400;50.364;14.874;2023-06-26T05:15:15;98714.91;;;25.69;60.76
66547;BME280;53400;50.364;14.874;2023-06-26T05:17:40;98714.69;;;25.74;59.58
66547;BME280;53400;50.364;14.874;2023-06-26T05:20:08;98712.88;;;25.53;60.98
66547;BME280;53400;50.364;14.874;2023-06-26T05:22:36;98712.50;;;24.13;63.64
66547;BME280;53400;50.364;14.874;2023-06-26T05:25:08;98713.41;;;25.01;64.43
66547;BME280;53400;50.364;14.874;2023-06-26T05:27:36;98712.47;;;25.18;61.34
66547;BME280;53400;50.364;14.874;2023-06-26T05:30:03;98711.72;;;25.54;60.76
66547;BME280;53400;50.364;14.874;2023-06-26T05:32:30;98708.63;;;25.56;61.09
66547;BME280;53400;50.364;14.874;2023-06-26T05:35:01;98701.25;;;24.36;64.37
66547;BME280;53400;50.364;14.874;2023-06-26T05:37:29;98705.81;;;23.81;65.32
66547;BME280;53400;50.364;14.874;2023-06-26T05:39:57;98706.50;;;23.69;65.54
66547;BME280;53400;50.364;14.874;2023-06-26T05:42:24;98702.94;;;23.77;66.65
66547;BME280;53400;50.364;14.874;2023-06-26T05:44:50;98699.31;;;23.56;65.44
66547;BME280;53400;50.364;14.874;2023-06-26T05:47:16;98694.50;;;22.97;69.14
66547;BME280;53400;50.364;14.874;2023-06-26T05:49:42;98698.44;;;23.73;66.57
66547;BME280;53400;50.364;14.874;2023-06-26T05:52:10;98689.38;;;24.86;63.46
66547;BME280;53400;50.364;14.874;2023-06-26T05:54:37;98684.13;;;22.64;68.30
66547;BME280;53400;50.364;14.874;2023-06-26T05:57:07;98685.25;;;24.25;64.82
66547;BME280;53400;50.364;14.874;2023-06-26T05:59:36;98676.41;;;23.31;70.49
66547;BME280;53400;50.364;14.874;2023-06-26T06:02:05;98682.03;;;24.23;63.88
66547;BME280;53400;50.364;14.874;2023-06-26T06:04:31;98680.28;;;24.61;65.30
66547;BME280;53400;50.364;14.874;2023-06-26T06:06:57;98676.00;;;24.72;63.31
66547;BME280;53400;50.364;14.874;2023-06-26T06:09:24;98673.78;;;24.86;62.41
66547;BME280;53400;50.364;14.874;2023-06-26T06:11:52;98675.00;;;25.34;62.16
66547;BME280;53400;50.364;14.874;2023-06-26T06:14:18;98676.34;;;24.49;62.65
66547;BME280;53400;50.364;14.874;2023-06-26T06:16:46;98677.16;;;24.83;63.07
66547;BME280;53400;50.364;14.874;2023-06-26T06:19:12;98682.16;;;25.02;61.77
66547;BME280;53400;50.364;14.874;2023-06-26T06:21:40;98678.91;;;24.88;64.07
66547;BME280;53400;50.364;14.874;2023-06-26T06:24:07;98673.34;;;24.21;65.41
66547;BME280;53400;50.364;14.874;2023-06-26T06:26:33;98677.06;;;25.37;61.75
66547;BME280;53400;50.364;14.874;2023-06-26T06:28:59;98677.44;;;24.90;61.27
66547;BME280;53400;50.364;14.874;2023-06-26T06:31:25;98673.63;;;24.83;62.85
66547;BME280;53400;50.364;14.874;2023-06-26T06:33:55;98681.25;;;24.77;62.95
66547;BME280;53400;50.364;14.874;2023-06-26T06:36:21;98677.41;;;24.78;62.81
66547;BME280;53400;50.364;14.874;2023-06-26T06:38:47;98679.59;;;25.67;60.94
66547;BME280;53400;50.364;14.874;2023-06-26T06:41:14;98677.09;;;26.39;58.88
66547;BME280;53400;50.364;14.874;2023-06-26T06:43:42;98675.69;;;26.17;58.73
66547;BME280;53400;50.364;14.874;2023-06-26T06:46:08;98669.56;;;25.01;61.18
66547;BME280;53400;50.364;14.874;2023-06-26T06:48:34;98678.53;;;26.21;58.68
66547;BME280;53400;50.364;14.874;2023-06-26T06:51:02;98670.84;;;26.67;59.01
66547;BME280;53400;50.364;14.874;2023-06-26T06:53:29;98676.25;;;27.23;55.43
66547;BME280;53400;50.364;14.874;2023-06-26T06:55:56;98678.63;;;27.72;54.76
66547;BME280;53400;50.364;14.874;2023-06-26T06:58:22;98677.69;;;28.00;54.48
66547;BME280;53400;50.364;14.874;2023-06-26T07:00:49;98671.63;;;27.59;53.80
66547;BME280;53400;50.364;14.874;2023-06-26T07:03:17;98669.25;;;26.25;58.78
66547;BME280;53400;50.364;14.874;2023-06-26T07:05:44;98666.16;;;26.27;58.90
66547;BME280;53400;50.364;14.874;2023-06-26T07:08:11;98659.72;;;26.91;58.14
66547;BME280;53400;50.364;14.874;2023-06-26T07:10:38;98659.75;;;27.55;55.80
66547;BME280;53400;50.364;14.874;2023-06-26T07:13:05;98664.34;;;27.51;55.79
66547;BME280;53400;50.364;14.874;2023-06-26T07:15:31;98663.97;;;27.05;56.23
66547;BME280;53400;50.364;14.874;2023-06-26T07:17:57;98655.19;;;26.83;56.75
66547;BME280;53400;50.364;14.874;2023-06-26T07:20:24;98663.81;;;26.41;57.01
66547;BME280;53400;50.364;14.874;2023-06-26T07:22:50;98662.22;;;26.68;56.57
66547;BME280;53400;50.364;14.874;2023-06-26T07:25:18;98659.34;;;26.08;58.26
66547;BME280;53400;50.364;14.874;2023-06-26T07:27:45;98661.25;;;26.08;59.14
66547;BME280;53400;50.364;14.874;2023-06-26T07:30:11;98653.38;;;27.19;56.26
66547;BME280;53400;50.364;14.874;2023-06-26T07:32:38;98652.81;;;26.97;57.22
66547;BME280;53400;50.364;14.874;2023-06-26T07:35:06;98651.34;;;26.72;57.88
66547;BME280;53400;50.364;14.874;2023-06-26T07:37:32;98644.56;;;27.61;56.49
66547;BME280;53400;50.364;14.874;2023-06-26T07:39:58;98651.25;;;26.68;57.78
66547;BME280;53400;50.364;14.874;2023-06-26T07:42:26;98649.75;;;26.02;60.73
66547;BME280;53400;50.364;14.874;2023-06-26T07:44:52;98647.38;;;25.76;59.17
66547;BME280;53400;50.364;14.874;2023-06-26T07:47:18;98654.09;;;27.16;57.61
66547;BME280;53400;50.364;14.874;2023-06-26T07:49:44;98655.78;;;27.36;56.68
66547;BME280;53400;50.364;14.874;2023-06-26T07:52:11;98658.94;;;27.70;56.47
66547;BME280;53400;50.364;14.874;2023-06-26T07:54:37;98648.56;;;27.79;55.57
66547;BME280;53400;50.364;14.874;2023-06-26T07:57:05;98649.00;;;27.65;56.66
66547;BME280;53400;50.364;14.874;2023-06-26T07:59:36;98645.91;;;27.04;57.50
66547;BME280;53400;50.364;14.874;2023-06-26T08:02:02;98647.78;;;27.31;55.68
66547;BME280;53400;50.364;14.874;2023-06-26T08:04:30;98658.75;;;28.14;52.79
66547;BME280;53400;50.364;14.874;2023-06-26T08:06:58;98650.84;;;28.32;53.10
66547;BME280;53400;50.364;14.874;2023-06-26T08:09:27;98651.13;;;28.27;52.35
66547;BME280;53400;50.364;14.874;2023-06-26T08:11:54;98655.69;;;28.00;54.16
66547;BME280;53400;50.364;14.874;2023-06-26T08:14:20;98646.59;;;28.34;54.51
66547;BME280;53400;50.364;14.874;2023-06-26T08:16:48;98653.16;;;28.46;52.86
66547;BME280;53400;50.364;14.874;2023-06-26T08:19:16;98646.03;;;28.64;53.95
66547;BME280;53400;50.364;14.874;2023-06-26T08:21:44;98639.22;;;28.58;53.86
66547;BME280;53400;50.364;14.874;2023-06-26T08:24:10;98645.88;;;28.76;54.64
66547;BME280;53400;50.364;14.874;2023-06-26T08:26:37;98641.97;;;29.23;50.51
66547;BME280;53400;50.364;14.874;2023-06-26T08:29:03;98635.91;;;29.37;49.98
66547;BME280;53400;50.364;14.874;2023-06-26T08:31:33;98631.13;;;29.34;50.64
66547;BME280;53400;50.364;14.874;2023-06-26T08:34:01;98632.91;;;29.46;49.15
66547;BME280;53400;50.364;14.874;2023-06-26T08:36:28;98631.66;;;28.74;51.66
66547;BME280;53400;50.364;14.874;2023-06-26T08:38:54;98632.81;;;28.54;50.83
66547;BME280;53400;50.364;14.874;2023-06-26T08:41:20;98619.16;;;26.44;54.34
66547;BME280;53400;50.364;14.874;2023-06-26T08:43:46;98624.63;;;27.48;55.39
66547;BME280;53400;50.364;14.874;2023-06-26T08:46:12;98617.78;;;27.42;53.98
66547;BME280;53400;50.364;14.874;2023-06-26T08:48:42;98613.31;;;27.85;53.35
66547;BME280;53400;50.364;14.874;2023-06-26T08:51:16;98613.66;;;27.83;54.93
66547;BME280;53400;50.364;14.874;2023-06-26T08:53:49;98615.78;;;28.68;53.58
66547;BME280;53400;50.364;14.874;2023-06-26T08:56:17;98611.00;;;29.07;52.14
66547;BME280;53400;50.364;14.874;2023-06-26T08:58:47;98612.97;;;29.33;49.28
66547;BME280;53400;50.364;14.874;2023-06-26T09:01:13;98609.91;;;29.38;51.22
66547;BME280;53400;50.364;14.874;2023-06-26T09:03:39;98613.94;;;29.44;49.36
66547;BME280;53400;50.364;14.874;2023-06-26T09:06:07;98605.56;;;29.64;49.32
66547;BME280;53400;50.364;14.874;2023-06-26T09:08:34;98600.19;;;30.01;48.68
66547;BME280;53400;50.364;14.874;2023-06-26T09:11:01;98595.56;;;29.29;48.47
66547;BME280;53400;50.364;14.874;2023-06-26T09:13:29;98595.19;;;29.31;49.09
66547;BME280;53400;50.364;14.874;2023-06-26T09:15:56;98599.78;;;29.46;48.15
66547;BME280;53400;50.364;14.874;2023-06-26T09:18:23;98594.25;;;29.19;48.85
66547;BME280;53400;50.364;14.874;2023-06-26T09:20:50;98602.59;;;29.49;50.42
66547;BME280;53400;50.364;14.874;2023-06-26T09:23:16;98604.25;;;27.68;52.93
66547;BME280;53400;50.364;14.874;2023-06-26T09:25:47;98602.22;;;28.20;53.72
66547;BME280;53400;50.364;14.874;2023-06-26T09:28:12;98599.09;;;29.03;50.00
66547;BME280;53400;50.364;14.874;2023-06-26T09:30:39;98591.91;;;29.48;47.85
66547;BME280;53400;50.364;14.874;2023-06-26T09:33:17;98590.41;;;30.07;47.29
66547;BME280;53400;50.364;14.874;2023-06-26T09:35:45;98590.16;;;29.10;49.84
66547;BME280;53400;50.364;14.874;2023-06-26T09:38:12;98594.16;;;28.93;50.94
66547;BME280;53400;50.364;14.874;2023-06-26T09:40:38;98589.09;;;29.18;50.39
66547;BME280;53400;50.364;14.874;2023-06-26T09:43:07;98592.28;;;29.20;48.17
66547;BME280;53400;50.364;14.874;2023-06-26T09:45:36;98586.72;;;29.43;48.74
66547;BME280;53400;50.364;14.874;2023-06-26T09:48:05;98586.81;;;30.07;45.97
66547;BME280;53400;50.364;14.874;2023-06-26T09:50:32;98574.34;;;29.86;47.81
66547;BME280;53400;50.364;14.874;2023-06-26T09:53:07;98577.34;;;29.74;48.54
66547;BME280;53400;50.364;14.874;2023-06-26T09:55:36;98571.63;;;29.90;48.57
66547;BME280;53400;50.364;14.874;2023-06-26T09:58:03;98570.66;;;30.09;47.77
66547;BME280;53400;50.364;14.874;2023-06-26T10:00:32;98566.78;;;28.80;51.66
66547;BME280;53400;50.364;14.874;2023-06-26T10:02:59;98564.09;;;29.60;48.04
66547;BME280;53400;50.364;14.874;2023-06-26T10:05:25;98560.47;;;30.13;46.14
66547;BME280;53400;50.364;14.874;2023-06-26T10:07:52;98559.34;;;30.17;46.80
66547;BME280;53400;50.364;14.874;2023-06-26T10:10:19;98552.97;;;30.88;44.69
66547;BME280;53400;50.364;14.874;2023-06-26T10:12:48;98552.72;;;31.04;44.68
66547;BME280;53400;50.364;14.874;2023-06-26T10:15:15;98546.25;;;30.85;45.55
66547;BME280;53400;50.364;14.874;2023-06-26T10:17:45;98538.56;;;30.27;46.25
66547;BME280;53400;50.364;14.874;2023-06-26T10:20:13;98536.59;;;30.69;45.83
66547;BME280;53400;50.364;14.874;2023-06-26T10:22:44;98530.41;;;30.79;47.68
66547;BME280;53400;50.364;14.874;2023-06-26T10:25:14;98538.22;;;31.18;45.38
66547;BME280;53400;50.364;14.874;2023-06-26T10:27:46;98531.41;;;31.70;44.14
66547;BME280;53400;50.364;14.874;2023-06-26T10:30:14;98530.63;;;31.73;43.45
66547;BME280;53400;50.364;14.874;2023-06-26T10:32:43;98525.88;;;31.70;43.28
66547;BME280;53400;50.364;14.874;2023-06-26T10:35:11;98520.16;;;32.11;43.38
66547;BME280;53400;50.364;14.874;2023-06-26T10:37:44;98522.66;;;31.58;43.38
66547;BME280;53400;50.364;14.874;2023-06-26T10:40:12;98515.13;;;30.96;44.68
66547;BME280;53400;50.364;14.874;2023-06-26T10:42:39;98519.06;;;31.50;43.41
66547;BME280;53400;50.364;14.874;2023-06-26T10:45:10;98504.66;;;31.23;42.73
66547;BME280;53400;50.364;14.874;2023-06-26T10:47:40;98505.88;;;31.29;44.54
66547;BME280;53400;50.364;14.874;2023-06-26T10:50:24;98501.47;;;31.17;45.86
66547;BME280;53400;50.364;14.874;2023-06-26T10:53:08;98503.47;;;31.24;45.04
66547;BME280;53400;50.364;14.874;2023-06-26T10:55:37;98503.91;;;31.29;44.72
66547;BME280;53400;50.364;14.874;2023-06-26T10:58:03;98493.03;;;30.55;47.37
66547;BME280;53400;50.364;14.874;2023-06-26T11:00:30;98495.31;;;30.87;46.91
66547;BME280;53400;50.364;14.874;2023-06-26T11:02:57;98497.97;;;31.31;45.84
66547;BME280;53400;50.364;14.874;2023-06-26T11:05:25;98501.00;;;31.77;44.36
66547;BME280;53400;50.364;14.874;2023-06-26T11:08:06;98487.31;;;32.31;42.55
66547;BME280;53400;50.364;14.874;2023-06-26T11:10:50;98489.69;;;32.22;44.92
66547;BME280;53400;50.364;14.874;2023-06-26T11:13:17;98482.09;;;31.90;43.98
66547;BME280;53400;50.364;14.874;2023-06-26T11:15:44;98485.03;;;31.42;44.61
66547;BME280;53400;50.364;14.874;2023-06-26T11:18:11;98474.88;;;30.98;44.46
66547;BME280;53400;50.364;14.874;2023-06-26T11:20:40;98483.09;;;31.53;41.31
66547;BME280;53400;50.364;14.874;2023-06-26T11:23:07;98479.28;;;31.87;42.81
66547;BME280;53400;50.364;14.874;2023-06-26T11:25:34;98479.94;;;31.59;43.97
66547;BME280;53400;50.364;14.874;2023-06-26T11:28:01;98476.94;;;31.92;42.60
66547;BME280;53400;50.364;14.874;2023-06-26T11:30:27;98473.88;;;32.37;40.18
66547;BME280;53400;50.364;14.874;2023-06-26T11:33:02;98472.66;;;32.13;40.29
66547;BME280;53400;50.364;14.874;2023-06-26T11:35:29;98465.97;;;32.85;40.37
66547;BME280;53400;50.364;14.874;2023-06-26T11:37:57;98472.72;;;32.59;43.24
66547;BME280;53400;50.364;14.874;2023-06-26T11:40:26;98456.44;;;33.08;39.15
66547;BME280;53400;50.364;14.874;2023-06-26T11:42:52;98458.06;;;32.52;40.42
66547;BME280;53400;50.364;14.874;2023-06-26T11:45:19;98461.41;;;31.70;43.33
66547;BME280;53400;50.364;14.874;2023-06-26T11:47:45;98459.84;;;31.65;41.88
66547;BME280;53400;50.364;14.874;2023-06-26T11:50:15;98463.41;;;31.69;42.90
66547;BME280;53400;50.364;14.874;2023-06-26T11:52:41;98463.72;;;31.50;43.74
66547;BME280;53400;50.364;14.874;2023-06-26T11:55:09;98464.94;;;31.60;45.21
66547;BME280;53400;50.364;14.874;2023-06-26T11:57:38;98453.13;;;31.73;45.21
66547;BME280;53400;50.364;14.874;2023-06-26T12:00:12;98457.59;;;32.03;41.57
66547;BME280;53400;50.364;14.874;2023-06-26T12:02:38;98460.28;;;31.89;42.11
66547;BME280;53400;50.364;14.874;2023-06-26T12:05:06;98451.28;;;32.13;42.40
66547;BME280;53400;50.364;14.874;2023-06-26T12:07:33;98449.31;;;32.25;42.14
66547;BME280;53400;50.364;14.874;2023-06-26T12:10:00;98443.75;;;32.10;42.04
66547;BME280;53400;50.364;14.874;2023-06-26T12:12:28;98433.53;;;32.75;40.24
66547;BME280;53400;50.364;14.874;2023-06-26T12:14:54;98437.69;;;31.72;42.43
66547;BME280;53400;50.364;14.874;2023-06-26T12:17:23;98433.44;;;32.04;43.08
66547;BME280;53400;50.364;14.874;2023-06-26T12:19:51;98429.56;;;32.48;41.03
66547;BME280;53400;50.364;14.874;2023-06-26T12:22:18;98423.59;;;32.35;41.59
66547;BME280;53400;50.364;14.874;2023-06-26T12:24:45;98431.50;;;32.18;44.08
66547;BME280;53400;50.364;14.874;2023-06-26T12:27:13;98428.25;;;31.84;41.88
66547;BME280;53400;50.364;14.874;2023-06-26T12:29:45;98421.22;;;32.37;43.92
66547;BME280;53400;50.364;14.874;2023-06-26T12:32:12;98410.16;;;32.51;41.52
66547;BME280;53400;50.364;14.874;2023-06-26T12:34:40;98413.28;;;32.25;41.83
66547;BME280;53400;50.364;14.874;2023-06-26T12:37:07;98405.88;;;31.30;43.15
66547;BME280;53400;50.364;14.874;2023-06-26T12:39:45;98415.28;;;31.12;44.91
66547;BME280;53400;50.364;14.874;2023-06-26T12:42:14;98416.50;;;31.18;43.71
66547;BME280;53400;50.364;14.874;2023-06-26T12:44:52;98409.84;;;31.29;43.03
66547;BME280;53400;50.364;14.874;2023-06-26T12:47:26;98400.59;;;31.91;42.43
66547;BME280;53400;50.364;14.874;2023-06-26T12:49:53;98401.03;;;32.08;40.62
66547;BME280;53400;50.364;14.874;2023-06-26T12:52:20;98399.66;;;31.51;42.11